Center Conway, NH (03813)

2:01 AM EDT on April 30, 2017 (GMT -0400)
Pine Tree School | | Change Station

Elev 450 ft 43.99 °N, 71.06 °W | Updated 12 minutes ago

Clear
Clear
52.2 °F
Feels Like 52.2 °F
N
3.0
Wind Variable Wind from SE
Gusts 9.0 mph

Today
High -- | Low -- °F
--% Chance of Precip.
Yesterday
High -- | Low -- °F
Precip. -- in
Pressure 30.15 in
Visibility 10.0 miles
Clouds Clear
Dew Point 23.9 °F
Humidity 33%
Rainfall Not available.
Snow Depth Not available.
5:36 AM 7:46 PM
Waxing Crescent, 20% visible
METAR KIZG 300554Z AUTO 31005KT 10SM CLR 07/M03 A3015 RMK AO2 SLP209 T00671033 10200 20056 51042
Pressure 30.15 in
Visibility 10.0 miles
Clouds Clear
Dew Point 23.9 °F
Humidity 33%
Rainfall Not available.
Snow Depth Not available.
5:36 AM 7:46 PM
Waxing Crescent, 20% visible
METAR KIZG 300554Z AUTO 31005KT 10SM CLR 07/M03 A3015 RMK AO2 SLP209 T00671033 10200 20056 51042

Get Severe Weather Alerts

Thanks for signing up!

Be on the lookout for a verification email in your inbox.

You'll start receiving the daily forecast at 8 AM.

×

10-Day Weather Forecast

Almanac

Astronomy

Apr. 30, 2017 Rise Set
Actual Time
Civil Twilight
Nautical Twilight
Astronomical Twilight
Moon
Length of Visible Light
Length of Day
Tomorrow will be .
, % of the Moon is Illuminated

Today's Extremes

State Highs State Lows

Community

WunderPhotos

WunderBlog® & News

Nearby

Air Quality

  Air Quality AQ Index Pollutant
Not available.

Snow Depth

Station Depth Elevation

Earthquake Activity

City Distance Mag. Time & Date
Minimum magnitude displayed is 2.5.

Coastal Water Temperatures

Place Temperature

Stations

Nearby Weather Stations

Station Location Temp. Windchill Dew Point Humidity Wind Precip. Elev Updated Type
                   

Watches & Warnings

There are currently no watches in effect.